sensor_id;sensor_type;location;lat;lon;timestamp;temperature;humidity
2056;DHT22;1033;52.560;13.374;2022-07-17T00:00:20;13.50;1.00
2056;DHT22;1033;52.560;13.374;2022-07-17T00:02:49;13.50;1.00
2056;DHT22;1033;52.560;13.374;2022-07-17T00:05:18;13.50;1.00
2056;DHT22;1033;52.560;13.374;2022-07-17T00:07:47;13.50;1.00
2056;DHT22;1033;52.560;13.374;2022-07-17T00:10:17;13.40;1.00
2056;DHT22;1033;52.560;13.374;2022-07-17T00:12:46;13.30;1.00
2056;DHT22;1033;52.560;13.374;2022-07-17T00:15:17;13.30;1.00
2056;DHT22;1033;52.560;13.374;2022-07-17T00:17:46;13.20;1.00
2056;DHT22;1033;52.560;13.374;2022-07-17T00:20:15;13.20;1.00
2056;DHT22;1033;52.560;13.374;2022-07-17T00:22:45;13.20;1.00
2056;DHT22;1033;52.560;13.374;2022-07-17T00:25:14;13.20;1.00
2056;DHT22;1033;52.560;13.374;2022-07-17T00:27:43;13.20;1.00
2056;DHT22;1033;52.560;13.374;2022-07-17T00:30:13;13.10;1.00
2056;DHT22;1033;52.560;13.374;2022-07-17T00:32:45;13.10;1.00
2056;DHT22;1033;52.560;13.374;2022-07-17T00:35:14;13.00;1.00
2056;DHT22;1033;52.560;13.374;2022-07-17T00:37:47;12.80;1.00
2056;DHT22;1033;52.560;13.374;2022-07-17T00:40:20;12.80;1.00
2056;DHT22;1033;52.560;13.374;2022-07-17T00:42:51;12.80;1.00
2056;DHT22;1033;52.560;13.374;2022-07-17T00:45:20;12.70;1.00
2056;DHT22;1033;52.560;13.374;2022-07-17T00:47:58;12.60;1.00
2056;DHT22;1033;52.560;13.374;2022-07-17T00:50:29;12.50;1.00
2056;DHT22;1033;52.560;13.374;2022-07-17T00:53:02;12.50;1.00
2056;DHT22;1033;52.560;13.374;2022-07-17T00:55:31;12.50;1.00
2056;DHT22;1033;52.560;13.374;2022-07-17T00:58:11;12.40;1.00
2056;DHT22;1033;52.560;13.374;2022-07-17T01:00:47;12.30;1.00
2056;DHT22;1033;52.560;13.374;2022-07-17T01:03:20;12.30;1.00
2056;DHT22;1033;52.560;13.374;2022-07-17T01:05:51;12.30;1.00
2056;DHT22;1033;52.560;13.374;2022-07-17T01:08:21;12.20;1.00
2056;DHT22;1033;52.560;13.374;2022-07-17T01:10:50;12.20;1.00
2056;DHT22;1033;52.560;13.374;2022-07-17T01:13:19;12.10;1.00
2056;DHT22;1033;52.560;13.374;2022-07-17T01:15:49;12.20;1.00
2056;DHT22;1033;52.560;13.374;2022-07-17T01:18:20;12.20;1.00
2056;DHT22;1033;52.560;13.374;2022-07-17T01:20:51;12.10;1.00
2056;DHT22;1033;52.560;13.374;2022-07-17T01:23:23;12.00;1.00
2056;DHT22;1033;52.560;13.374;2022-07-17T01:25:52;12.00;1.00
2056;DHT22;1033;52.560;13.374;2022-07-17T01:28:21;11.90;1.00
2056;DHT22;1033;52.560;13.374;2022-07-17T01:30:51;11.90;1.00
2056;DHT22;1033;52.560;13.374;2022-07-17T01:33:21;11.80;1.00
2056;DHT22;1033;52.560;13.374;2022-07-17T01:35:50;11.90;1.00
2056;DHT22;1033;52.560;13.374;2022-07-17T01:38:20;11.90;1.00
2056;DHT22;1033;52.560;13.374;2022-07-17T01:40:50;11.90;1.00
2056;DHT22;1033;52.560;13.374;2022-07-17T01:43:19;11.80;1.00
2056;DHT22;1033;52.560;13.374;2022-07-17T01:45:48;11.80;1.00
2056;DHT22;1033;52.560;13.374;2022-07-17T01:48:24;11.80;1.00
2056;DHT22;1033;52.560;13.374;2022-07-17T01:50:55;11.70;1.00
2056;DHT22;1033;52.560;13.374;2022-07-17T01:53:24;11.60;1.00
2056;DHT22;1033;52.560;13.374;2022-07-17T01:55:54;11.60;1.00
2056;DHT22;1033;52.560;13.374;2022-07-17T01:58:23;11.60;1.00
2056;DHT22;1033;52.560;13.374;2022-07-17T02:00:53;11.70;1.00
2056;DHT22;1033;52.560;13.374;2022-07-17T02:03:22;11.70;1.00
2056;DHT22;1033;52.560;13.374;2022-07-17T02:05:51;11.60;1.00
2056;DHT22;1033;52.560;13.374;2022-07-17T02:08:20;11.50;1.00
2056;DHT22;1033;52.560;13.374;2022-07-17T02:10:48;11.40;1.00
2056;DHT22;1033;52.560;13.374;2022-07-17T02:13:19;11.40;1.00
2056;DHT22;1033;52.560;13.374;2022-07-17T02:15:49;11.30;1.00
2056;DHT22;1033;52.560;13.374;2022-07-17T02:18:18;11.40;1.00
2056;DHT22;1033;52.560;13.374;2022-07-17T02:20:46;11.30;1.00
2056;DHT22;1033;52.560;13.374;2022-07-17T02:23:16;11.30;14.80
2056;DHT22;1033;52.560;13.374;2022-07-17T02:25:45;11.30;24.50
2056;DHT22;1033;52.560;13.374;2022-07-17T02:28:14;11.30;67.00
2056;DHT22;1033;52.560;13.374;2022-07-17T02:30:45;11.30;91.60
2056;DHT22;1033;52.560;13.374;2022-07-17T02:33:15;11.30;99.90
2056;DHT22;1033;52.560;13.374;2022-07-17T02:35:44;11.20;99.90
2056;DHT22;1033;52.560;13.374;2022-07-17T02:38:12;11.20;99.90
2056;DHT22;1033;52.560;13.374;2022-07-17T02:40:41;11.20;99.90
2056;DHT22;1033;52.560;13.374;2022-07-17T02:43:11;11.20;1.00
2056;DHT22;1033;52.560;13.374;2022-07-17T02:45:40;11.20;1.00
2056;DHT22;1033;52.560;13.374;2022-07-17T02:48:10;11.20;99.90
2056;DHT22;1033;52.560;13.374;2022-07-17T02:50:39;11.20;1.00
2056;DHT22;1033;52.560;13.374;2022-07-17T02:53:08;11.10;1.00
2056;DHT22;1033;52.560;13.374;2022-07-17T02:55:37;11.00;1.00
2056;DHT22;1033;52.560;13.374;2022-07-17T02:58:06;10.90;99.90
2056;DHT22;1033;52.560;13.374;2022-07-17T03:00:35;10.90;99.90
2056;DHT22;1033;52.560;13.374;2022-07-17T03:03:04;11.00;99.90
2056;DHT22;1033;52.560;13.374;2022-07-17T03:05:34;11.00;99.90
2056;DHT22;1033;52.560;13.374;2022-07-17T03:08:03;11.10;99.90
2056;DHT22;1033;52.560;13.374;2022-07-17T03:10:32;11.00;99.90
2056;DHT22;1033;52.560;13.374;2022-07-17T03:13:01;11.10;99.90
2056;DHT22;1033;52.560;13.374;2022-07-17T03:15:30;11.10;99.90
2056;DHT22;1033;52.560;13.374;2022-07-17T03:18:00;11.10;99.90
2056;DHT22;1033;52.560;13.374;2022-07-17T03:20:28;11.10;99.90
2056;DHT22;1033;52.560;13.374;2022-07-17T03:22:59;11.10;99.90
2056;DHT22;1033;52.560;13.374;2022-07-17T03:25:28;11.10;99.90
2056;DHT22;1033;52.560;13.374;2022-07-17T03:27:58;11.10;99.90
2056;DHT22;1033;52.560;13.374;2022-07-17T03:30:26;11.10;99.90
2056;DHT22;1033;52.560;13.374;2022-07-17T03:32:55;11.10;99.90
2056;DHT22;1033;52.560;13.374;2022-07-17T03:35:24;11.10;99.90
2056;DHT22;1033;52.560;13.374;2022-07-17T03:37:53;11.20;99.90
2056;DHT22;1033;52.560;13.374;2022-07-17T03:40:23;11.20;99.90
2056;DHT22;1033;52.560;13.374;2022-07-17T03:42:52;11.30;99.90
2056;DHT22;1033;52.560;13.374;2022-07-17T03:45:21;11.50;99.90
2056;DHT22;1033;52.560;13.374;2022-07-17T03:47:49;11.80;99.90
2056;DHT22;1033;52.560;13.374;2022-07-17T03:50:18;12.40;99.80
2056;DHT22;1033;52.560;13.374;2022-07-17T03:52:47;13.10;1.00
2056;DHT22;1033;52.560;13.374;2022-07-17T03:55:16;13.70;1.00
2056;DHT22;1033;52.560;13.374;2022-07-17T03:57:46;14.20;1.00
2056;DHT22;1033;52.560;13.374;2022-07-17T04:00:15;14.70;1.00
2056;DHT22;1033;52.560;13.374;2022-07-17T04:02:44;14.90;1.00
2056;DHT22;1033;52.560;13.374;2022-07-17T04:05:13;15.30;1.00
2056;DHT22;1033;52.560;13.374;2022-07-17T04:07:42;15.70;1.00
2056;DHT22;1033;52.560;13.374;2022-07-17T04:10:13;16.10;1.00
2056;DHT22;1033;52.560;13.374;2022-07-17T04:12:43;16.60;1.00
2056;DHT22;1033;52.560;13.374;2022-07-17T04:15:13;16.50;1.00
2056;DHT22;1033;52.560;13.374;2022-07-17T04:18:02;16.80;1.00
2056;DHT22;1033;52.560;13.374;2022-07-17T04:20:31;16.90;1.00
2056;DHT22;1033;52.560;13.374;2022-07-17T04:23:00;17.20;1.00
2056;DHT22;1033;52.560;13.374;2022-07-17T04:25:29;17.40;1.00
2056;DHT22;1033;52.560;13.374;2022-07-17T04:27:57;17.70;1.00
2056;DHT22;1033;52.560;13.374;2022-07-17T04:30:28;17.70;1.00
2056;DHT22;1033;52.560;13.374;2022-07-17T04:32:57;18.00;1.00
2056;DHT22;1033;52.560;13.374;2022-07-17T04:35:26;17.90;1.00
2056;DHT22;1033;52.560;13.374;2022-07-17T04:37:56;17.90;1.00
2056;DHT22;1033;52.560;13.374;2022-07-17T04:40:33;18.20;1.00
2056;DHT22;1033;52.560;13.374;2022-07-17T04:43:04;18.30;1.00
2056;DHT22;1033;52.560;13.374;2022-07-17T04:45:35;18.80;1.00
2056;DHT22;1033;52.560;13.374;2022-07-17T04:48:04;19.10;1.00
2056;DHT22;1033;52.560;13.374;2022-07-17T04:50:33;19.00;1.00
2056;DHT22;1033;52.560;13.374;2022-07-17T04:53:02;19.00;1.00
2056;DHT22;1033;52.560;13.374;2022-07-17T04:55:31;18.60;1.00
2056;DHT22;1033;52.560;13.374;2022-07-17T04:58:00;18.40;1.00
2056;DHT22;1033;52.560;13.374;2022-07-17T05:00:28;18.60;1.00
2056;DHT22;1033;52.560;13.374;2022-07-17T05:02:59;18.70;1.00
2056;DHT22;1033;52.560;13.374;2022-07-17T05:05:28;18.70;1.00
2056;DHT22;1033;52.560;13.374;2022-07-17T05:07:57;18.60;1.00
2056;DHT22;1033;52.560;13.374;2022-07-17T05:10:27;18.50;1.00
2056;DHT22;1033;52.560;13.374;2022-07-17T05:12:55;18.60;1.00
2056;DHT22;1033;52.560;13.374;2022-07-17T05:15:24;18.60;1.00
2056;DHT22;1033;52.560;13.374;2022-07-17T05:17:53;18.70;1.00
2056;DHT22;1033;52.560;13.374;2022-07-17T05:20:23;18.60;1.00
2056;DHT22;1033;52.560;13.374;2022-07-17T05:22:52;17.90;1.00
2056;DHT22;1033;52.560;13.374;2022-07-17T05:25:22;17.70;1.00
2056;DHT22;1033;52.560;13.374;2022-07-17T05:27:50;18.00;1.00
2056;DHT22;1033;52.560;13.374;2022-07-17T05:30:19;18.00;1.00
2056;DHT22;1033;52.560;13.374;2022-07-17T05:32:48;18.50;1.00
2056;DHT22;1033;52.560;13.374;2022-07-17T05:35:17;18.60;1.00
2056;DHT22;1033;52.560;13.374;2022-07-17T05:37:47;18.30;1.00
2056;DHT22;1033;52.560;13.374;2022-07-17T05:40:16;18.40;1.00
2056;DHT22;1033;52.560;13.374;2022-07-17T05:42:44;18.20;1.00
2056;DHT22;1033;52.560;13.374;2022-07-17T05:45:13;17.20;1.00
2056;DHT22;1033;52.560;13.374;2022-07-17T05:47:42;16.60;1.00
2056;DHT22;1033;52.560;13.374;2022-07-17T05:50:10;16.30;1.00
2056;DHT22;1033;52.560;13.374;2022-07-17T05:52:39;15.90;1.00
2056;DHT22;1033;52.560;13.374;2022-07-17T05:55:10;15.70;1.00
2056;DHT22;1033;52.560;13.374;2022-07-17T05:57:38;15.80;1.00
2056;DHT22;1033;52.560;13.374;2022-07-17T06:00:08;15.90;1.00
2056;DHT22;1033;52.560;13.374;2022-07-17T06:02:38;16.10;1.00
2056;DHT22;1033;52.560;13.374;2022-07-17T06:05:07;16.30;1.00
2056;DHT22;1033;52.560;13.374;2022-07-17T06:07:44;16.60;1.00
2056;DHT22;1033;52.560;13.374;2022-07-17T06:10:14;16.60;1.00
2056;DHT22;1033;52.560;13.374;2022-07-17T06:12:43;16.20;1.00
2056;DHT22;1033;52.560;13.374;2022-07-17T06:15:13;15.90;1.00
2056;DHT22;1033;52.560;13.374;2022-07-17T06:17:42;15.90;1.00
2056;DHT22;1033;52.560;13.374;2022-07-17T06:20:12;16.20;1.00
2056;DHT22;1033;52.560;13.374;2022-07-17T06:22:42;16.40;1.00
2056;DHT22;1033;52.560;13.374;2022-07-17T06:25:14;16.20;1.00
2056;DHT22;1033;52.560;13.374;2022-07-17T06:27:43;16.30;1.00
2056;DHT22;1033;52.560;13.374;2022-07-17T06:30:13;16.10;1.00
2056;DHT22;1033;52.560;13.374;2022-07-17T06:32:43;16.40;1.00
2056;DHT22;1033;52.560;13.374;2022-07-17T06:35:12;16.70;1.00
2056;DHT22;1033;52.560;13.374;2022-07-17T06:37:41;17.00;1.00
2056;DHT22;1033;52.560;13.374;2022-07-17T06:40:10;17.20;1.00
2056;DHT22;1033;52.560;13.374;2022-07-17T06:42:40;17.30;1.00
2056;DHT22;1033;52.560;13.374;2022-07-17T06:45:10;16.90;1.00
2056;DHT22;1033;52.560;13.374;2022-07-17T06:47:39;16.80;1.00
2056;DHT22;1033;52.560;13.374;2022-07-17T06:50:08;16.70;1.00
2056;DHT22;1033;52.560;13.374;2022-07-17T06:52:37;16.90;1.00
2056;DHT22;1033;52.560;13.374;2022-07-17T06:55:12;17.00;1.00
2056;DHT22;1033;52.560;13.374;2022-07-17T06:57:43;16.90;1.00
2056;DHT22;1033;52.560;13.374;2022-07-17T07:00:12;16.90;1.00
2056;DHT22;1033;52.560;13.374;2022-07-17T07:02:42;16.80;1.00
2056;DHT22;1033;52.560;13.374;2022-07-17T07:05:11;16.70;1.00
2056;DHT22;1033;52.560;13.374;2022-07-17T07:07:39;16.80;1.00
2056;DHT22;1033;52.560;13.374;2022-07-17T07:10:09;16.80;1.00
2056;DHT22;1033;52.560;13.374;2022-07-17T07:12:38;16.70;1.00
2056;DHT22;1033;52.560;13.374;2022-07-17T07:15:09;16.80;1.00
2056;DHT22;1033;52.560;13.374;2022-07-17T07:17:39;16.80;1.00
2056;DHT22;1033;52.560;13.374;2022-07-17T07:20:09;16.90;1.00
2056;DHT22;1033;52.560;13.374;2022-07-17T07:22:39;16.70;1.00
2056;DHT22;1033;52.560;13.374;2022-07-17T07:25:08;16.60;1.00
2056;DHT22;1033;52.560;13.374;2022-07-17T07:27:37;16.50;1.00
2056;DHT22;1033;52.560;13.374;2022-07-17T07:30:08;16.90;1.00
2056;DHT22;1033;52.560;13.374;2022-07-17T07:32:38;17.10;1.00
2056;DHT22;1033;52.560;13.374;2022-07-17T07:35:09;17.30;1.00
2056;DHT22;1033;52.560;13.374;2022-07-17T07:37:38;17.50;1.00
2056;DHT22;1033;52.560;13.374;2022-07-17T07:40:08;17.40;1.00
2056;DHT22;1033;52.560;13.374;2022-07-17T07:42:38;17.60;1.00
2056;DHT22;1033;52.560;13.374;2022-07-17T07:45:09;17.70;1.00
2056;DHT22;1033;52.560;13.374;2022-07-17T07:47:42;17.70;1.00
2056;DHT22;1033;52.560;13.374;2022-07-17T07:50:13;17.70;1.00
2056;DHT22;1033;52.560;13.374;2022-07-17T07:52:43;17.20;1.00
2056;DHT22;1033;52.560;13.374;2022-07-17T07:55:12;17.20;1.00
2056;DHT22;1033;52.560;13.374;2022-07-17T07:57:47;17.20;1.00
2056;DHT22;1033;52.560;13.374;2022-07-17T08:00:18;17.10;1.00
2056;DHT22;1033;52.560;13.374;2022-07-17T08:02:47;17.00;1.00
2056;DHT22;1033;52.560;13.374;2022-07-17T08:05:15;16.90;1.00
2056;DHT22;1033;52.560;13.374;2022-07-17T08:07:45;17.00;1.00
2056;DHT22;1033;52.560;13.374;2022-07-17T08:10:14;17.10;1.00
2056;DHT22;1033;52.560;13.374;2022-07-17T08:12:43;17.30;1.00
2056;DHT22;1033;52.560;13.374;2022-07-17T08:15:16;17.20;1.00
2056;DHT22;1033;52.560;13.374;2022-07-17T08:17:50;17.20;1.00
2056;DHT22;1033;52.560;13.374;2022-07-17T08:20:20;17.30;1.00
2056;DHT22;1033;52.560;13.374;2022-07-17T08:22:50;17.10;1.00
2056;DHT22;1033;52.560;13.374;2022-07-17T08:25:32;17.10;1.00
2056;DHT22;1033;52.560;13.374;2022-07-17T08:28:03;17.20;1.00
2056;DHT22;1033;52.560;13.374;2022-07-17T08:30:35;17.10;1.00
2056;DHT22;1033;52.560;13.374;2022-07-17T08:33:05;17.40;1.00
2056;DHT22;1033;52.560;13.374;2022-07-17T08:35:36;17.40;1.00
2056;DHT22;1033;52.560;13.374;2022-07-17T08:38:05;17.60;1.00
2056;DHT22;1033;52.560;13.374;2022-07-17T08:40:36;17.80;1.00
2056;DHT22;1033;52.560;13.374;2022-07-17T08:43:07;18.10;1.00
2056;DHT22;1033;52.560;13.374;2022-07-17T08:45:39;18.00;1.00
2056;DHT22;1033;52.560;13.374;2022-07-17T08:48:15;18.50;1.00
2056;DHT22;1033;52.560;13.374;2022-07-17T08:50:46;18.80;1.00
2056;DHT22;1033;52.560;13.374;2022-07-17T08:53:15;18.60;1.00
2056;DHT22;1033;52.560;13.374;2022-07-17T08:55:44;18.20;1.00
2056;DHT22;1033;52.560;13.374;2022-07-17T08:58:17;18.20;1.00
2056;DHT22;1033;52.560;13.374;2022-07-17T09:00:47;18.00;1.00
2056;DHT22;1033;52.560;13.374;2022-07-17T09:03:17;17.80;1.00
2056;DHT22;1033;52.560;13.374;2022-07-17T09:05:46;17.80;1.00
2056;DHT22;1033;52.560;13.374;2022-07-17T09:08:17;17.90;1.00
2056;DHT22;1033;52.560;13.374;2022-07-17T09:10:49;18.00;1.00
2056;DHT22;1033;52.560;13.374;2022-07-17T09:13:23;18.00;1.00
2056;DHT22;1033;52.560;13.374;2022-07-17T09:15:58;18.10;1.00
2056;DHT22;1033;52.560;13.374;2022-07-17T09:18:43;18.20;1.00
2056;DHT22;1033;52.560;13.374;2022-07-17T09:21:18;18.10;1.00
2056;DHT22;1033;52.560;13.374;2022-07-17T09:24:00;18.20;1.00
2056;DHT22;1033;52.560;13.374;2022-07-17T09:26:30;18.60;1.00
2056;DHT22;1033;52.560;13.374;2022-07-17T09:29:02;18.90;1.00
2056;DHT22;1033;52.560;13.374;2022-07-17T09:31:33;19.00;1.00
2056;DHT22;1033;52.560;13.374;2022-07-17T09:34:02;19.10;1.00
2056;DHT22;1033;52.560;13.374;2022-07-17T09:36:31;19.30;1.00
2056;DHT22;1033;52.560;13.374;2022-07-17T09:39:00;19.00;1.00
2056;DHT22;1033;52.560;13.374;2022-07-17T09:41:29;19.00;1.00
2056;DHT22;1033;52.560;13.374;2022-07-17T09:44:01;18.80;1.00
2056;DHT22;1033;52.560;13.374;2022-07-17T09:46:31;18.90;1.00
2056;DHT22;1033;52.560;13.374;2022-07-17T09:49:05;19.10;1.00
2056;DHT22;1033;52.560;13.374;2022-07-17T09:51:38;19.10;1.00
2056;DHT22;1033;52.560;13.374;2022-07-17T09:54:08;19.30;1.00
2056;DHT22;1033;52.560;13.374;2022-07-17T09:56:39;19.20;1.00
2056;DHT22;1033;52.560;13.374;2022-07-17T09:59:11;18.70;1.00
2056;DHT22;1033;52.560;13.374;2022-07-17T10:01:44;18.70;1.00
2056;DHT22;1033;52.560;13.374;2022-07-17T10:04:16;18.80;1.00
2056;DHT22;1033;52.560;13.374;2022-07-17T10:06:45;18.40;1.00
2056;DHT22;1033;52.560;13.374;2022-07-17T10:09:15;18.90;1.00
2056;DHT22;1033;52.560;13.374;2022-07-17T10:11:45;19.20;1.00
2056;DHT22;1033;52.560;13.374;2022-07-17T10:14:16;19.20;1.00
2056;DHT22;1033;52.560;13.374;2022-07-17T10:16:48;19.00;1.00
2056;DHT22;1033;52.560;13.374;2022-07-17T10:19:19;19.10;1.00
2056;DHT22;1033;52.560;13.374;2022-07-17T10:21:54;19.50;1.00
2056;DHT22;1033;52.560;13.374;2022-07-17T10:24:25;19.90;1.00
2056;DHT22;1033;52.560;13.374;2022-07-17T10:26:54;20.50;1.00
2056;DHT22;1033;52.560;13.374;2022-07-17T10:29:37;20.50;1.00
2056;DHT22;1033;52.560;13.374;2022-07-17T10:32:18;20.50;1.00
2056;DHT22;1033;52.560;13.374;2022-07-17T10:34:52;19.80;1.00
2056;DHT22;1033;52.560;13.374;2022-07-17T10:37:27;20.00;1.00
2056;DHT22;1033;52.560;13.374;2022-07-17T10:40:05;20.50;1.00
2056;DHT22;1033;52.560;13.374;2022-07-17T10:42:44;20.70;1.00
2056;DHT22;1033;52.560;13.374;2022-07-17T10:45:30;20.50;1.00
2056;DHT22;1033;52.560;13.374;2022-07-17T10:48:05;20.30;1.00
2056;DHT22;1033;52.560;13.374;2022-07-17T10:50:38;20.00;1.00
2056;DHT22;1033;52.560;13.374;2022-07-17T10:53:11;20.10;1.00
2056;DHT22;1033;52.560;13.374;2022-07-17T10:55:52;20.10;1.00
2056;DHT22;1033;52.560;13.374;2022-07-17T10:58:25;20.50;1.00
2056;DHT22;1033;52.560;13.374;2022-07-17T11:00:57;20.40;1.00
2056;DHT22;1033;52.560;13.374;2022-07-17T11:03:30;20.30;1.00
2056;DHT22;1033;52.560;13.374;2022-07-17T11:06:14;20.20;1.00
2056;DHT22;1033;52.560;13.374;2022-07-17T11:08:49;20.30;1.00
2056;DHT22;1033;52.560;13.374;2022-07-17T11:11:21;20.70;1.00
2056;DHT22;1033;52.560;13.374;2022-07-17T11:14:11;20.70;1.00
2056;DHT22;1033;52.560;13.374;2022-07-17T11:16:45;20.70;1.00
2056;DHT22;1033;52.560;13.374;2022-07-17T11:19:25;20.60;1.00
2056;DHT22;1033;52.560;13.374;2022-07-17T11:21:55;20.60;1.00
2056;DHT22;1033;52.560;13.374;2022-07-17T11:24:35;20.80;1.00
2056;DHT22;1033;52.560;13.374;2022-07-17T11:27:05;21.20;1.00
2056;DHT22;1033;52.560;13.374;2022-07-17T11:29:36;21.20;1.00
2056;DHT22;1033;52.560;13.374;2022-07-17T11:32:05;21.30;1.00
2056;DHT22;1033;52.560;13.374;2022-07-17T11:34:36;21.10;1.00
2056;DHT22;1033;52.560;13.374;2022-07-17T11:37:06;21.10;1.00
2056;DHT22;1033;52.560;13.374;2022-07-17T11:39:38;20.90;1.00
2056;DHT22;1033;52.560;13.374;2022-07-17T11:42:10;20.90;1.00
2056;DHT22;1033;52.560;13.374;2022-07-17T11:44:41;21.20;1.00
2056;DHT22;1033;52.560;13.374;2022-07-17T11:47:18;21.00;1.00
2056;DHT22;1033;52.560;13.374;2022-07-17T11:49:49;21.00;1.00
2056;DHT22;1033;52.560;13.374;2022-07-17T11:52:20;20.90;1.00
2056;DHT22;1033;52.560;13.374;2022-07-17T11:54:57;21.00;1.00
2056;DHT22;1033;52.560;13.374;2022-07-17T11:57:26;20.90;1.00
2056;DHT22;1033;52.560;13.374;2022-07-17T12:00:05;20.80;1.00
2056;DHT22;1033;52.560;13.374;2022-07-17T12:02:37;21.10;1.00
2056;DHT22;1033;52.560;13.374;2022-07-17T12:05:08;21.40;1.00
2056;DHT22;1033;52.560;13.374;2022-07-17T12:07:42;21.50;1.00
2056;DHT22;1033;52.560;13.374;2022-07-17T12:10:14;21.60;1.00
2056;DHT22;1033;52.560;13.374;2022-07-17T12:12:54;21.20;1.00
2056;DHT22;1033;52.560;13.374;2022-07-17T12:15:35;21.30;1.00
2056;DHT22;1033;52.560;13.374;2022-07-17T12:18:21;21.30;1.00
2056;DHT22;1033;52.560;13.374;2022-07-17T12:20:58;21.10;1.00
2056;DHT22;1033;52.560;13.374;2022-07-17T12:23:35;20.90;1.00
2056;DHT22;1033;52.560;13.374;2022-07-17T12:26:08;20.90;1.00
2056;DHT22;1033;52.560;13.374;2022-07-17T12:28:39;21.20;1.00
2056;DHT22;1033;52.560;13.374;2022-07-17T12:31:08;21.30;1.00
2056;DHT22;1033;52.560;13.374;2022-07-17T12:33:39;21.30;1.00
2056;DHT22;1033;52.560;13.374;2022-07-17T12:36:10;21.40;1.00
2056;DHT22;1033;52.560;13.374;2022-07-17T12:38:39;21.80;1.00
2056;DHT22;1033;52.560;13.374;2022-07-17T12:41:08;22.20;1.00
2056;DHT22;1033;52.560;13.374;2022-07-17T12:43:37;22.20;1.00
2056;DHT22;1033;52.560;13.374;2022-07-17T12:46:07;22.20;1.00
2056;DHT22;1033;52.560;13.374;2022-07-17T12:48:42;21.90;1.00
2056;DHT22;1033;52.560;13.374;2022-07-17T12:51:14;21.70;1.00
2056;DHT22;1033;52.560;13.374;2022-07-17T12:53:44;21.80;1.00
2056;DHT22;1033;52.560;13.374;2022-07-17T12:56:13;21.90;1.00
2056;DHT22;1033;52.560;13.374;2022-07-17T12:58:42;22.00;1.00
2056;DHT22;1033;52.560;13.374;2022-07-17T13:01:11;22.30;1.00
2056;DHT22;1033;52.560;13.374;2022-07-17T13:03:40;22.40;1.00
2056;DHT22;1033;52.560;13.374;2022-07-17T13:06:10;22.60;1.00
2056;DHT22;1033;52.560;13.374;2022-07-17T13:08:40;22.60;1.00
2056;DHT22;1033;52.560;13.374;2022-07-17T13:11:09;22.30;1.00
2056;DHT22;1033;52.560;13.374;2022-07-17T13:13:38;22.30;1.00
2056;DHT22;1033;52.560;13.374;2022-07-17T13:16:10;22.20;1.00
2056;DHT22;1033;52.560;13.374;2022-07-17T13:18:40;22.10;1.00
2056;DHT22;1033;52.560;13.374;2022-07-17T13:21:09;22.40;1.00
2056;DHT22;1033;52.560;13.374;2022-07-17T13:23:41;22.40;1.00
2056;DHT22;1033;52.560;13.374;2022-07-17T13:26:10;22.60;1.00
2056;DHT22;1033;52.560;13.374;2022-07-17T13:28:45;22.80;1.00
2056;DHT22;1033;52.560;13.374;2022-07-17T13:31:14;22.90;1.00
2056;DHT22;1033;52.560;13.374;2022-07-17T13:33:43;22.90;1.00
2056;DHT22;1033;52.560;13.374;2022-07-17T13:36:12;22.80;1.00
2056;DHT22;1033;52.560;13.374;2022-07-17T13:38:43;22.70;1.00
2056;DHT22;1033;52.560;13.374;2022-07-17T13:41:11;22.60;1.00
2056;DHT22;1033;52.560;13.374;2022-07-17T13:43:41;22.20;1.00
2056;DHT22;1033;52.560;13.374;2022-07-17T13:46:10;22.50;1.00
2056;DHT22;1033;52.560;13.374;2022-07-17T13:48:38;22.70;1.00
2056;DHT22;1033;52.560;13.374;2022-07-17T13:51:08;22.70;1.00
2056;DHT22;1033;52.560;13.374;2022-07-17T13:53:37;22.70;1.00
2056;DHT22;1033;52.560;13.374;2022-07-17T13:56:08;22.70;1.00
2056;DHT22;1033;52.560;13.374;2022-07-17T13:58:37;22.70;1.00
2056;DHT22;1033;52.560;13.374;2022-07-17T14:01:07;22.80;1.00
2056;DHT22;1033;52.560;13.374;2022-07-17T14:03:36;22.70;1.00
2056;DHT22;1033;52.560;13.374;2022-07-17T14:06:05;22.90;1.00
2056;DHT22;1033;52.560;13.374;2022-07-17T14:08:35;23.20;1.00
2056;DHT22;1033;52.560;13.374;2022-07-17T14:11:04;23.20;1.00
2056;DHT22;1033;52.560;13.374;2022-07-17T14:13:35;23.20;1.00
2056;DHT22;1033;52.560;13.374;2022-07-17T14:16:12;23.30;1.00
2056;DHT22;1033;52.560;13.374;2022-07-17T14:18:41;23.30;1.00
2056;DHT22;1033;52.560;13.374;2022-07-17T14:21:25;23.20;1.00
2056;DHT22;1033;52.560;13.374;2022-07-17T14:23:54;23.00;1.00
2056;DHT22;1033;52.560;13.374;2022-07-17T14:26:22;23.00;1.00
2056;DHT22;1033;52.560;13.374;2022-07-17T14:28:53;23.00;1.00
2056;DHT22;1033;52.560;13.374;2022-07-17T14:31:22;23.20;1.00
2056;DHT22;1033;52.560;13.374;2022-07-17T14:33:51;23.30;1.00
2056;DHT22;1033;52.560;13.374;2022-07-17T14:36:20;23.20;1.00
2056;DHT22;1033;52.560;13.374;2022-07-17T14:38:49;23.20;1.00
2056;DHT22;1033;52.560;13.374;2022-07-17T14:41:18;23.00;1.00
2056;DHT22;1033;52.560;13.374;2022-07-17T14:43:49;22.90;1.00
2056;DHT22;1033;52.560;13.374;2022-07-17T14:46:19;23.00;1.00
2056;DHT22;1033;52.560;13.374;2022-07-17T14:48:48;23.10;1.00
2056;DHT22;1033;52.560;13.374;2022-07-17T14:51:17;23.20;1.00
2056;DHT22;1033;52.560;13.374;2022-07-17T14:53:46;23.30;1.00
2056;DHT22;1033;52.560;13.374;2022-07-17T14:56:15;23.50;1.00
2056;DHT22;1033;52.560;13.374;2022-07-17T14:58:44;23.70;1.00
2056;DHT22;1033;52.560;13.374;2022-07-17T15:01:13;23.90;1.00
2056;DHT22;1033;52.560;13.374;2022-07-17T15:03:43;23.90;1.00
2056;DHT22;1033;52.560;13.374;2022-07-17T15:06:12;23.90;1.00
2056;DHT22;1033;52.560;13.374;2022-07-17T15:08:41;23.90;1.00
2056;DHT22;1033;52.560;13.374;2022-07-17T15:11:10;23.70;1.00
2056;DHT22;1033;52.560;13.374;2022-07-17T15:13:39;23.70;1.00
2056;DHT22;1033;52.560;13.374;2022-07-17T15:16:08;23.50;1.00
2056;DHT22;1033;52.560;13.374;2022-07-17T15:18:37;23.20;1.00
2056;DHT22;1033;52.560;13.374;2022-07-17T15:21:08;23.10;1.00
2056;DHT22;1033;52.560;13.374;2022-07-17T15:23:57;23.30;1.00
2056;DHT22;1033;52.560;13.374;2022-07-17T15:26:26;23.50;1.00
2056;DHT22;1033;52.560;13.374;2022-07-17T15:28:56;23.50;1.00
2056;DHT22;1033;52.560;13.374;2022-07-17T15:31:25;23.50;1.00
2056;DHT22;1033;52.560;13.374;2022-07-17T15:33:54;23.50;1.00
2056;DHT22;1033;52.560;13.374;2022-07-17T15:36:25;23.50;1.00
2056;DHT22;1033;52.560;13.374;2022-07-17T15:38:56;23.50;1.00
2056;DHT22;1033;52.560;13.374;2022-07-17T15:41:27;23.30;1.00
2056;DHT22;1033;52.560;13.374;2022-07-17T15:43:55;23.30;1.00
2056;DHT22;1033;52.560;13.374;2022-07-17T15:46:24;23.30;1.00
2056;DHT22;1033;52.560;13.374;2022-07-17T15:48:54;23.40;1.00
2056;DHT22;1033;52.560;13.374;2022-07-17T15:51:24;23.50;1.00
2056;DHT22;1033;52.560;13.374;2022-07-17T15:53:53;23.40;1.00
2056;DHT22;1033;52.560;13.374;2022-07-17T15:56:23;23.40;1.00
2056;DHT22;1033;52.560;13.374;2022-07-17T15:58:52;23.40;1.00
2056;DHT22;1033;52.560;13.374;2022-07-17T16:01:21;23.50;1.00
2056;DHT22;1033;52.560;13.374;2022-07-17T16:03:50;23.50;1.00
2056;DHT22;1033;52.560;13.374;2022-07-17T16:06:28;23.60;1.00
2056;DHT22;1033;52.560;13.374;2022-07-17T16:08:57;23.70;1.00
2056;DHT22;1033;52.560;13.374;2022-07-17T16:11:26;23.70;1.00
2056;DHT22;1033;52.560;13.374;2022-07-17T16:13:55;23.60;1.00
2056;DHT22;1033;52.560;13.374;2022-07-17T16:16:24;23.60;1.00
2056;DHT22;1033;52.560;13.374;2022-07-17T16:18:54;23.60;1.00
2056;DHT22;1033;52.560;13.374;2022-07-17T16:21:23;23.70;1.00